sensor_id;sensor_type;location;lat;lon;timestamp;temperature;humidity
19110;DHT22;9687;50.836;12.060;2023-07-08T00:01:59;24.00;57.80
19110;DHT22;9687;50.836;12.060;2023-07-08T00:04:26;24.00;57.90
19110;DHT22;9687;50.836;12.060;2023-07-08T00:06:54;23.90;57.80
19110;DHT22;9687;50.836;12.060;2023-07-08T00:09:21;23.90;57.90
19110;DHT22;9687;50.836;12.060;2023-07-08T00:11:53;23.90;58.00
19110;DHT22;9687;50.836;12.060;2023-07-08T00:14:21;23.80;58.00
19110;DHT22;9687;50.836;12.060;2023-07-08T00:16:51;23.80;58.10
19110;DHT22;9687;50.836;12.060;2023-07-08T00:19:27;23.80;58.10
19110;DHT22;9687;50.836;12.060;2023-07-08T00:21:54;23.80;58.20
19110;DHT22;9687;50.836;12.060;2023-07-08T00:24:21;23.70;58.20
19110;DHT22;9687;50.836;12.060;2023-07-08T00:26:49;23.70;58.30
19110;DHT22;9687;50.836;12.060;2023-07-08T00:29:16;23.70;58.40
19110;DHT22;9687;50.836;12.060;2023-07-08T00:32:10;23.60;59.00
19110;DHT22;9687;50.836;12.060;2023-07-08T00:34:39;23.60;58.50
19110;DHT22;9687;50.836;12.060;2023-07-08T00:37:08;23.60;58.70
19110;DHT22;9687;50.836;12.060;2023-07-08T00:39:36;23.50;58.70
19110;DHT22;9687;50.836;12.060;2023-07-08T00:42:04;23.40;58.70
19110;DHT22;9687;50.836;12.060;2023-07-08T00:44:37;23.40;58.80
19110;DHT22;9687;50.836;12.060;2023-07-08T00:47:07;23.40;58.80
19110;DHT22;9687;50.836;12.060;2023-07-08T00:49:36;23.30;58.70
19110;DHT22;9687;50.836;12.060;2023-07-08T00:52:22;23.20;58.80
19110;DHT22;9687;50.836;12.060;2023-07-08T00:54:51;23.10;59.00
19110;DHT22;9687;50.836;12.060;2023-07-08T00:57:19;23.00;59.30
19110;DHT22;9687;50.836;12.060;2023-07-08T00:59:47;22.90;59.50
19110;DHT22;9687;50.836;12.060;2023-07-08T01:02:16;22.80;59.60
19110;DHT22;9687;50.836;12.060;2023-07-08T01:04:46;22.70;60.00
19110;DHT22;9687;50.836;12.060;2023-07-08T01:07:14;22.60;59.90
19110;DHT22;9687;50.836;12.060;2023-07-08T01:09:49;22.60;60.60
19110;DHT22;9687;50.836;12.060;2023-07-08T01:12:19;22.60;59.90
19110;DHT22;9687;50.836;12.060;2023-07-08T01:14:48;22.50;60.00
19110;DHT22;9687;50.836;12.060;2023-07-08T01:17:22;22.50;60.00
19110;DHT22;9687;50.836;12.060;2023-07-08T01:19:51;22.50;60.20
19110;DHT22;9687;50.836;12.060;2023-07-08T01:22:22;22.40;60.30
19110;DHT22;9687;50.836;12.060;2023-07-08T01:24:50;22.40;60.80
19110;DHT22;9687;50.836;12.060;2023-07-08T01:27:18;22.30;61.00
19110;DHT22;9687;50.836;12.060;2023-07-08T01:29:46;22.20;61.20
19110;DHT22;9687;50.836;12.060;2023-07-08T01:32:14;22.10;61.30
19110;DHT22;9687;50.836;12.060;2023-07-08T01:34:44;22.00;61.50
19110;DHT22;9687;50.836;12.060;2023-07-08T01:37:28;21.90;61.70
19110;DHT22;9687;50.836;12.060;2023-07-08T01:39:55;21.90;62.00
19110;DHT22;9687;50.836;12.060;2023-07-08T01:42:23;21.80;62.10
19110;DHT22;9687;50.836;12.060;2023-07-08T01:44:50;21.70;62.40
19110;DHT22;9687;50.836;12.060;2023-07-08T01:47:19;21.60;62.60
19110;DHT22;9687;50.836;12.060;2023-07-08T01:49:47;21.50;62.70
19110;DHT22;9687;50.836;12.060;2023-07-08T01:52:14;21.60;62.80
19110;DHT22;9687;50.836;12.060;2023-07-08T01:54:44;21.60;62.80
19110;DHT22;9687;50.836;12.060;2023-07-08T01:57:11;21.60;62.80
19110;DHT22;9687;50.836;12.060;2023-07-08T01:59:38;21.60;62.80
19110;DHT22;9687;50.836;12.060;2023-07-08T02:02:10;21.70;62.60
19110;DHT22;9687;50.836;12.060;2023-07-08T02:04:39;21.70;62.50
19110;DHT22;9687;50.836;12.060;2023-07-08T02:07:06;21.60;62.50
19110;DHT22;9687;50.836;12.060;2023-07-08T02:09:33;21.60;62.70
19110;DHT22;9687;50.836;12.060;2023-07-08T02:12:02;21.60;62.80
19110;DHT22;9687;50.836;12.060;2023-07-08T02:14:33;21.60;62.80
19110;DHT22;9687;50.836;12.060;2023-07-08T02:17:00;21.60;62.80
19110;DHT22;9687;50.836;12.060;2023-07-08T02:19:31;21.70;62.80
19110;DHT22;9687;50.836;12.060;2023-07-08T02:21:58;21.70;62.70
19110;DHT22;9687;50.836;12.060;2023-07-08T02:24:26;21.70;62.60
19110;DHT22;9687;50.836;12.060;2023-07-08T02:26:53;21.70;62.60
19110;DHT22;9687;50.836;12.060;2023-07-08T02:29:24;21.70;62.50
19110;DHT22;9687;50.836;12.060;2023-07-08T02:31:51;21.80;62.70
19110;DHT22;9687;50.836;12.060;2023-07-08T02:34:19;21.70;62.50
19110;DHT22;9687;50.836;12.060;2023-07-08T02:36:47;21.80;62.60
19110;DHT22;9687;50.836;12.060;2023-07-08T02:39:18;21.80;62.60
19110;DHT22;9687;50.836;12.060;2023-07-08T02:41:45;21.80;62.50
19110;DHT22;9687;50.836;12.060;2023-07-08T02:44:12;21.80;62.40
19110;DHT22;9687;50.836;12.060;2023-07-08T02:46:41;21.70;62.30
19110;DHT22;9687;50.836;12.060;2023-07-08T02:49:12;21.70;62.40
19110;DHT22;9687;50.836;12.060;2023-07-08T02:51:56;21.60;62.50
19110;DHT22;9687;50.836;12.060;2023-07-08T02:54:23;21.60;62.80
19110;DHT22;9687;50.836;12.060;2023-07-08T02:56:50;21.60;62.80
19110;DHT22;9687;50.836;12.060;2023-07-08T02:59:18;21.50;62.70
19110;DHT22;9687;50.836;12.060;2023-07-08T03:01:46;21.50;62.70
19110;DHT22;9687;50.836;12.060;2023-07-08T03:04:14;21.50;62.70
19110;DHT22;9687;50.836;12.060;2023-07-08T03:06:41;21.40;62.60
19110;DHT22;9687;50.836;12.060;2023-07-08T03:09:09;21.40;62.70
19110;DHT22;9687;50.836;12.060;2023-07-08T03:11:37;21.40;62.80
19110;DHT22;9687;50.836;12.060;2023-07-08T03:14:05;21.40;62.80
19110;DHT22;9687;50.836;12.060;2023-07-08T03:16:32;21.30;62.80
19110;DHT22;9687;50.836;12.060;2023-07-08T03:19:01;21.30;62.90
19110;DHT22;9687;50.836;12.060;2023-07-08T03:21:30;21.30;63.00
19110;DHT22;9687;50.836;12.060;2023-07-08T03:23:58;21.30;63.00
19110;DHT22;9687;50.836;12.060;2023-07-08T03:26:25;21.30;63.00
19110;DHT22;9687;50.836;12.060;2023-07-08T03:28:53;21.30;63.10
19110;DHT22;9687;50.836;12.060;2023-07-08T03:31:20;21.20;63.10
19110;DHT22;9687;50.836;12.060;2023-07-08T03:33:47;21.20;63.30
19110;DHT22;9687;50.836;12.060;2023-07-08T03:36:16;21.10;63.30
19110;DHT22;9687;50.836;12.060;2023-07-08T03:38:49;21.10;63.40
19110;DHT22;9687;50.836;12.060;2023-07-08T03:41:16;20.90;63.50
19110;DHT22;9687;50.836;12.060;2023-07-08T03:43:44;20.90;63.80
19110;DHT22;9687;50.836;12.060;2023-07-08T03:46:11;20.80;63.80
19110;DHT22;9687;50.836;12.060;2023-07-08T03:48:38;20.70;63.80
19110;DHT22;9687;50.836;12.060;2023-07-08T03:51:06;20.50;63.70
19110;DHT22;9687;50.836;12.060;2023-07-08T03:53:36;20.40;64.00
19110;DHT22;9687;50.836;12.060;2023-07-08T03:56:03;20.20;64.20
19110;DHT22;9687;50.836;12.060;2023-07-08T03:58:30;20.20;64.50
19110;DHT22;9687;50.836;12.060;2023-07-08T04:00:58;20.10;64.80
19110;DHT22;9687;50.836;12.060;2023-07-08T04:03:25;20.00;65.00
19110;DHT22;9687;50.836;12.060;2023-07-08T04:05:52;20.00;65.10
19110;DHT22;9687;50.836;12.060;2023-07-08T04:08:19;20.00;65.40
19110;DHT22;9687;50.836;12.060;2023-07-08T04:10:47;20.10;65.50
19110;DHT22;9687;50.836;12.060;2023-07-08T04:13:15;20.10;65.50
19110;DHT22;9687;50.836;12.060;2023-07-08T04:15:42;20.20;65.60
19110;DHT22;9687;50.836;12.060;2023-07-08T04:18:09;20.70;66.00
19110;DHT22;9687;50.836;12.060;2023-07-08T04:20:36;20.30;65.70
19110;DHT22;9687;50.836;12.060;2023-07-08T04:23:03;20.30;65.80
19110;DHT22;9687;50.836;12.060;2023-07-08T04:25:31;20.40;65.80
19110;DHT22;9687;50.836;12.060;2023-07-08T04:28:00;20.40;65.80
19110;DHT22;9687;50.836;12.060;2023-07-08T04:30:27;20.40;65.90
19110;DHT22;9687;50.836;12.060;2023-07-08T04:32:54;20.40;65.90
19110;DHT22;9687;50.836;12.060;2023-07-08T04:35:22;20.40;66.10
19110;DHT22;9687;50.836;12.060;2023-07-08T04:37:49;20.40;66.20
19110;DHT22;9687;50.836;12.060;2023-07-08T04:40:17;20.40;66.30
19110;DHT22;9687;50.836;12.060;2023-07-08T04:42:47;20.40;66.30
19110;DHT22;9687;50.836;12.060;2023-07-08T04:45:17;20.40;66.30
19110;DHT22;9687;50.836;12.060;2023-07-08T04:47:45;20.40;66.30
19110;DHT22;9687;50.836;12.060;2023-07-08T04:50:18;20.50;66.50
19110;DHT22;9687;50.836;12.060;2023-07-08T04:52:45;20.50;67.40
19110;DHT22;9687;50.836;12.060;2023-07-08T04:55:12;20.50;66.60
19110;DHT22;9687;50.836;12.060;2023-07-08T04:57:39;20.50;66.60
19110;DHT22;9687;50.836;12.060;2023-07-08T05:00:07;20.50;66.60
19110;DHT22;9687;50.836;12.060;2023-07-08T05:02:37;20.60;66.70
19110;DHT22;9687;50.836;12.060;2023-07-08T05:05:05;20.60;66.70
19110;DHT22;9687;50.836;12.060;2023-07-08T05:07:32;20.60;67.00
19110;DHT22;9687;50.836;12.060;2023-07-08T05:09:59;20.60;67.20
19110;DHT22;9687;50.836;12.060;2023-07-08T05:12:26;20.60;67.30
19110;DHT22;9687;50.836;12.060;2023-07-08T05:14:54;20.70;67.60
19110;DHT22;9687;50.836;12.060;2023-07-08T05:17:21;20.70;67.60
19110;DHT22;9687;50.836;12.060;2023-07-08T05:19:49;20.70;67.60
19110;DHT22;9687;50.836;12.060;2023-07-08T05:22:17;20.80;67.70
19110;DHT22;9687;50.836;12.060;2023-07-08T05:24:51;20.80;67.90
19110;DHT22;9687;50.836;12.060;2023-07-08T05:27:21;20.90;68.10
19110;DHT22;9687;50.836;12.060;2023-07-08T05:29:48;20.90;68.20
19110;DHT22;9687;50.836;12.060;2023-07-08T05:32:16;20.90;68.20
19110;DHT22;9687;50.836;12.060;2023-07-08T05:34:43;21.00;68.40
19110;DHT22;9687;50.836;12.060;2023-07-08T05:37:12;21.00;68.40
19110;DHT22;9687;50.836;12.060;2023-07-08T05:39:40;21.00;68.50
19110;DHT22;9687;50.836;12.060;2023-07-08T05:42:07;21.10;68.50
19110;DHT22;9687;50.836;12.060;2023-07-08T05:44:34;21.20;68.60
19110;DHT22;9687;50.836;12.060;2023-07-08T05:47:01;21.10;68.50
19110;DHT22;9687;50.836;12.060;2023-07-08T05:49:29;21.20;68.60
19110;DHT22;9687;50.836;12.060;2023-07-08T05:51:56;21.20;68.60
19110;DHT22;9687;50.836;12.060;2023-07-08T05:54:25;21.30;68.80
19110;DHT22;9687;50.836;12.060;2023-07-08T05:56:52;21.30;68.90
19110;DHT22;9687;50.836;12.060;2023-07-08T05:59:19;21.30;69.00
19110;DHT22;9687;50.836;12.060;2023-07-08T06:01:46;21.40;69.00
19110;DHT22;9687;50.836;12.060;2023-07-08T06:04:14;21.40;69.00
19110;DHT22;9687;50.836;12.060;2023-07-08T06:06:41;21.50;69.20
19110;DHT22;9687;50.836;12.060;2023-07-08T06:09:09;21.60;69.30
19110;DHT22;9687;50.836;12.060;2023-07-08T06:11:37;21.60;69.30
19110;DHT22;9687;50.836;12.060;2023-07-08T06:14:05;21.60;69.30
19110;DHT22;9687;50.836;12.060;2023-07-08T06:16:32;21.70;69.30
19110;DHT22;9687;50.836;12.060;2023-07-08T06:19:00;21.80;69.30
19110;DHT22;9687;50.836;12.060;2023-07-08T06:21:27;21.80;69.20
19110;DHT22;9687;50.836;12.060;2023-07-08T06:23:55;21.90;69.20
19110;DHT22;9687;50.836;12.060;2023-07-08T06:26:22;21.90;69.10
19110;DHT22;9687;50.836;12.060;2023-07-08T06:28:51;22.00;69.00
19110;DHT22;9687;50.836;12.060;2023-07-08T06:31:18;22.00;68.80
19110;DHT22;9687;50.836;12.060;2023-07-08T06:33:45;22.00;68.80
19110;DHT22;9687;50.836;12.060;2023-07-08T06:36:13;22.10;68.70
19110;DHT22;9687;50.836;12.060;2023-07-08T06:38:40;22.10;68.30
19110;DHT22;9687;50.836;12.060;2023-07-08T06:41:07;22.10;68.10
19110;DHT22;9687;50.836;12.060;2023-07-08T06:43:34;22.20;68.00
19110;DHT22;9687;50.836;12.060;2023-07-08T06:46:03;22.20;67.90
19110;DHT22;9687;50.836;12.060;2023-07-08T06:48:30;22.30;67.90
19110;DHT22;9687;50.836;12.060;2023-07-08T06:50:57;22.30;67.70
19110;DHT22;9687;50.836;12.060;2023-07-08T06:53:25;22.40;67.60
19110;DHT22;9687;50.836;12.060;2023-07-08T06:55:52;22.40;67.40
19110;DHT22;9687;50.836;12.060;2023-07-08T06:58:19;22.50;67.40
19110;DHT22;9687;50.836;12.060;2023-07-08T07:00:46;22.50;67.20
19110;DHT22;9687;50.836;12.060;2023-07-08T07:06:43;22.60;67.70
19110;DHT22;9687;50.836;12.060;2023-07-08T07:09:10;22.70;66.50
19110;DHT22;9687;50.836;12.060;2023-07-08T07:11:38;22.80;66.50
19110;DHT22;9687;50.836;12.060;2023-07-08T07:14:05;22.80;66.40
19110;DHT22;9687;50.836;12.060;2023-07-08T07:16:32;22.90;66.20
19110;DHT22;9687;50.836;12.060;2023-07-08T07:18:59;22.90;66.20
19110;DHT22;9687;50.836;12.060;2023-07-08T07:21:27;23.00;66.30
19110;DHT22;9687;50.836;12.060;2023-07-08T07:23:56;23.00;66.10
19110;DHT22;9687;50.836;12.060;2023-07-08T07:26:24;23.10;65.90
19110;DHT22;9687;50.836;12.060;2023-07-08T07:28:51;23.10;65.70
19110;DHT22;9687;50.836;12.060;2023-07-08T07:31:18;23.20;65.70
19110;DHT22;9687;50.836;12.060;2023-07-08T07:33:45;23.30;66.30
19110;DHT22;9687;50.836;12.060;2023-07-08T07:36:12;23.40;65.60
19110;DHT22;9687;50.836;12.060;2023-07-08T07:38:40;23.40;65.50
19110;DHT22;9687;50.836;12.060;2023-07-08T07:41:09;23.50;65.50
19110;DHT22;9687;50.836;12.060;2023-07-08T07:43:36;23.60;65.50
19110;DHT22;9687;50.836;12.060;2023-07-08T07:46:04;23.70;65.40
19110;DHT22;9687;50.836;12.060;2023-07-08T07:48:31;23.80;65.10
19110;DHT22;9687;50.836;12.060;2023-07-08T07:50:59;23.80;65.10
19110;DHT22;9687;50.836;12.060;2023-07-08T07:53:29;23.90;65.00
19110;DHT22;9687;50.836;12.060;2023-07-08T07:55:56;24.00;64.90
19110;DHT22;9687;50.836;12.060;2023-07-08T07:58:25;24.10;65.00
19110;DHT22;9687;50.836;12.060;2023-07-08T08:00:53;24.10;64.70
19110;DHT22;9687;50.836;12.060;2023-07-08T08:03:20;24.20;64.50
19110;DHT22;9687;50.836;12.060;2023-07-08T08:05:47;24.30;64.40
19110;DHT22;9687;50.836;12.060;2023-07-08T08:08:15;24.30;64.10
19110;DHT22;9687;50.836;12.060;2023-07-08T08:10:42;24.40;64.10
19110;DHT22;9687;50.836;12.060;2023-07-08T08:13:10;24.40;64.00
19110;DHT22;9687;50.836;12.060;2023-07-08T08:15:39;24.50;64.20
19110;DHT22;9687;50.836;12.060;2023-07-08T08:18:06;24.60;64.00
19110;DHT22;9687;50.836;12.060;2023-07-08T08:20:33;24.70;64.10
19110;DHT22;9687;50.836;12.060;2023-07-08T08:23:01;24.70;64.10
19110;DHT22;9687;50.836;12.060;2023-07-08T08:25:28;24.80;64.20
19110;DHT22;9687;50.836;12.060;2023-07-08T08:27:55;24.80;64.20
19110;DHT22;9687;50.836;12.060;2023-07-08T08:30:22;24.80;63.90
19110;DHT22;9687;50.836;12.060;2023-07-08T08:40:56;25.00;64.10
19110;DHT22;9687;50.836;12.060;2023-07-08T08:43:27;25.00;64.20
19110;DHT22;9687;50.836;12.060;2023-07-08T08:46:22;25.00;64.40
19110;DHT22;9687;50.836;12.060;2023-07-08T08:51:56;25.20;64.80
19110;DHT22;9687;50.836;12.060;2023-07-08T09:07:46;25.80;64.00
19110;DHT22;9687;50.836;12.060;2023-07-08T09:31:49;27.40;61.70
19110;DHT22;9687;50.836;12.060;2023-07-08T09:34:17;27.70;62.40
19110;DHT22;9687;50.836;12.060;2023-07-08T09:36:45;28.10;60.90
19110;DHT22;9687;50.836;12.060;2023-07-08T09:39:13;28.50;59.40
19110;DHT22;9687;50.836;12.060;2023-07-08T09:41:41;29.00;58.20
19110;DHT22;9687;50.836;12.060;2023-07-08T09:44:16;29.60;57.00
19110;DHT22;9687;50.836;12.060;2023-07-08T09:46:43;30.20;55.70
19110;DHT22;9687;50.836;12.060;2023-07-08T09:49:19;30.80;54.80
19110;DHT22;9687;50.836;12.060;2023-07-08T09:51:48;31.50;53.70
19110;DHT22;9687;50.836;12.060;2023-07-08T09:54:16;32.20;52.00
19110;DHT22;9687;50.836;12.060;2023-07-08T09:56:44;32.70;50.90
19110;DHT22;9687;50.836;12.060;2023-07-08T09:59:13;33.20;49.60
19110;DHT22;9687;50.836;12.060;2023-07-08T10:01:41;33.60;48.70
19110;DHT22;9687;50.836;12.060;2023-07-08T10:04:09;34.10;47.80
19110;DHT22;9687;50.836;12.060;2023-07-08T10:06:40;34.60;47.10
19110;DHT22;9687;50.836;12.060;2023-07-08T10:09:13;35.20;45.90
19110;DHT22;9687;50.836;12.060;2023-07-08T10:11:47;35.70;45.00
19110;DHT22;9687;50.836;12.060;2023-07-08T10:14:17;36.30;44.40
19110;DHT22;9687;50.836;12.060;2023-07-08T10:16:47;36.70;43.20
19110;DHT22;9687;50.836;12.060;2023-07-08T10:19:15;36.90;41.50
19110;DHT22;9687;50.836;12.060;2023-07-08T10:21:46;36.80;40.90
19110;DHT22;9687;50.836;12.060;2023-07-08T10:24:19;36.80;40.40
19110;DHT22;9687;50.836;12.060;2023-07-08T10:26:49;36.90;40.90
19110;DHT22;9687;50.836;12.060;2023-07-08T10:29:22;37.20;40.10
19110;DHT22;9687;50.836;12.060;2023-07-08T10:31:52;37.60;39.30
19110;DHT22;9687;50.836;12.060;2023-07-08T10:34:34;37.90;38.30
19110;DHT22;9687;50.836;12.060;2023-07-08T10:37:08;38.10;37.50
19110;DHT22;9687;50.836;12.060;2023-07-08T10:39:43;38.30;37.00
19110;DHT22;9687;50.836;12.060;2023-07-08T10:42:18;38.50;37.00
19110;DHT22;9687;50.836;12.060;2023-07-08T10:44:54;38.90;37.20
19110;DHT22;9687;50.836;12.060;2023-07-08T10:47:28;39.10;36.50
19110;DHT22;9687;50.836;12.060;2023-07-08T10:49:59;39.30;36.40
19110;DHT22;9687;50.836;12.060;2023-07-08T10:52:41;39.40;35.80
19110;DHT22;9687;50.836;12.060;2023-07-08T10:55:14;39.50;35.00
19110;DHT22;9687;50.836;12.060;2023-07-08T10:57:55;39.50;33.90
19110;DHT22;9687;50.836;12.060;2023-07-08T11:00:28;39.20;33.10
19110;DHT22;9687;50.836;12.060;2023-07-08T11:03:03;38.90;32.70
19110;DHT22;9687;50.836;12.060;2023-07-08T11:05:32;38.40;32.80
19110;DHT22;9687;50.836;12.060;2023-07-08T11:08:08;37.90;32.40
19110;DHT22;9687;50.836;12.060;2023-07-08T11:10:38;37.40;32.60
19110;DHT22;9687;50.836;12.060;2023-07-08T11:13:10;37.10;32.80
19110;DHT22;9687;50.836;12.060;2023-07-08T11:15:41;36.90;33.10
19110;DHT22;9687;50.836;12.060;2023-07-08T11:18:11;36.60;33.10
19110;DHT22;9687;50.836;12.060;2023-07-08T11:20:44;36.40;32.80
19110;DHT22;9687;50.836;12.060;2023-07-08T11:23:16;36.50;33.20
19110;DHT22;9687;50.836;12.060;2023-07-08T11:25:46;36.70;33.50
19110;DHT22;9687;50.836;12.060;2023-07-08T11:28:16;37.20;33.90
19110;DHT22;9687;50.836;12.060;2023-07-08T11:30:45;37.70;33.40
19110;DHT22;9687;50.836;12.060;2023-07-08T11:33:14;38.00;32.60
19110;DHT22;9687;50.836;12.060;2023-07-08T11:35:41;38.30;32.60
19110;DHT22;9687;50.836;12.060;2023-07-08T11:38:10;38.70;32.30
19110;DHT22;9687;50.836;12.060;2023-07-08T11:40:52;38.70;32.00
19110;DHT22;9687;50.836;12.060;2023-07-08T11:43:20;38.80;32.00
19110;DHT22;9687;50.836;12.060;2023-07-08T11:45:49;38.80;31.50
19110;DHT22;9687;50.836;12.060;2023-07-08T11:48:17;38.80;31.50
19110;DHT22;9687;50.836;12.060;2023-07-08T11:50:45;38.80;31.50
19110;DHT22;9687;50.836;12.060;2023-07-08T11:56:01;38.80;30.60
19110;DHT22;9687;50.836;12.060;2023-07-08T11:58:31;38.60;30.20
19110;DHT22;9687;50.836;12.060;2023-07-08T12:00:59;38.30;30.40
19110;DHT22;9687;50.836;12.060;2023-07-08T12:03:35;37.90;30.60
19110;DHT22;9687;50.836;12.060;2023-07-08T12:08:53;36.90;31.00
19110;DHT22;9687;50.836;12.060;2023-07-08T12:11:32;36.40;31.60
19110;DHT22;9687;50.836;12.060;2023-07-08T12:14:02;35.80;32.10
19110;DHT22;9687;50.836;12.060;2023-07-08T12:16:32;35.30;32.80
19110;DHT22;9687;50.836;12.060;2023-07-08T12:19:04;34.80;33.00
19110;DHT22;9687;50.836;12.060;2023-07-08T12:21:34;34.40;33.60
19110;DHT22;9687;50.836;12.060;2023-07-08T12:24:03;33.90;33.90
19110;DHT22;9687;50.836;12.060;2023-07-08T12:26:32;33.60;34.60
19110;DHT22;9687;50.836;12.060;2023-07-08T12:28:59;33.20;35.20
19110;DHT22;9687;50.836;12.060;2023-07-08T12:31:27;33.00;35.70
19110;DHT22;9687;50.836;12.060;2023-07-08T12:33:54;32.80;36.00
19110;DHT22;9687;50.836;12.060;2023-07-08T12:36:22;32.60;36.40
19110;DHT22;9687;50.836;12.060;2023-07-08T12:38:51;32.40;36.30
19110;DHT22;9687;50.836;12.060;2023-07-08T12:41:20;32.20;36.50
19110;DHT22;9687;50.836;12.060;2023-07-08T12:43:49;32.00;36.60
19110;DHT22;9687;50.836;12.060;2023-07-08T12:46:18;31.90;36.90
19110;DHT22;9687;50.836;12.060;2023-07-08T12:48:45;31.80;37.10
19110;DHT22;9687;50.836;12.060;2023-07-08T12:51:14;31.70;37.80
19110;DHT22;9687;50.836;12.060;2023-07-08T12:53:41;31.50;38.10
19110;DHT22;9687;50.836;12.060;2023-07-08T12:56:09;31.50;38.50
19110;DHT22;9687;50.836;12.060;2023-07-08T12:58:38;31.40;38.80
19110;DHT22;9687;50.836;12.060;2023-07-08T13:01:07;31.40;39.20
19110;DHT22;9687;50.836;12.060;2023-07-08T13:03:37;31.40;38.90
19110;DHT22;9687;50.836;12.060;2023-07-08T13:06:14;31.40;38.70
19110;DHT22;9687;50.836;12.060;2023-07-08T13:08:43;31.40;38.40
19110;DHT22;9687;50.836;12.060;2023-07-08T13:11:11;31.40;38.50
19110;DHT22;9687;50.836;12.060;2023-07-08T13:13:41;31.40;38.90
19110;DHT22;9687;50.836;12.060;2023-07-08T13:16:11;31.40;38.80
19110;DHT22;9687;50.836;12.060;2023-07-08T13:18:39;31.40;39.00
19110;DHT22;9687;50.836;12.060;2023-07-08T13:21:07;31.40;39.30
19110;DHT22;9687;50.836;12.060;2023-07-08T13:23:35;31.40;39.40
19110;DHT22;9687;50.836;12.060;2023-07-08T13:26:11;31.40;39.30
19110;DHT22;9687;50.836;12.060;2023-07-08T13:28:39;31.40;39.40
19110;DHT22;9687;50.836;12.060;2023-07-08T13:31:14;31.40;39.40
19110;DHT22;9687;50.836;12.060;2023-07-08T13:33:45;31.40;39.40
19110;DHT22;9687;50.836;12.060;2023-07-08T13:36:12;31.40;39.40
19110;DHT22;9687;50.836;12.060;2023-07-08T13:38:40;31.40;39.40
19110;DHT22;9687;50.836;12.060;2023-07-08T13:41:08;31.30;39.30
19110;DHT22;9687;50.836;12.060;2023-07-08T13:43:36;31.30;39.30
19110;DHT22;9687;50.836;12.060;2023-07-08T13:46:05;31.20;38.90
19110;DHT22;9687;50.836;12.060;2023-07-08T13:48:35;31.20;39.00
19110;DHT22;9687;50.836;12.060;2023-07-08T13:51:06;31.10;39.20
19110;DHT22;9687;50.836;12.060;2023-07-08T13:53:41;31.10;39.20
19110;DHT22;9687;50.836;12.060;2023-07-08T13:56:11;31.10;39.60
19110;DHT22;9687;50.836;12.060;2023-07-08T13:58:41;31.10;39.80
19110;DHT22;9687;50.836;12.060;2023-07-08T14:01:09;31.10;39.90
19110;DHT22;9687;50.836;12.060;2023-07-08T14:03:44;31.00;40.00
19110;DHT22;9687;50.836;12.060;2023-07-08T14:06:13;31.00;40.20
19110;DHT22;9687;50.836;12.060;2023-07-08T14:08:41;31.00;40.60
19110;DHT22;9687;50.836;12.060;2023-07-08T14:11:08;31.00;40.90
19110;DHT22;9687;50.836;12.060;2023-07-08T14:13:36;31.00;41.00
19110;DHT22;9687;50.836;12.060;2023-07-08T14:16:05;31.00;41.20
19110;DHT22;9687;50.836;12.060;2023-07-08T14:18:35;30.90;41.20
19110;DHT22;9687;50.836;12.060;2023-07-08T14:21:06;30.90;41.30
19110;DHT22;9687;50.836;12.060;2023-07-08T14:23:36;30.90;41.50
19110;DHT22;9687;50.836;12.060;2023-07-08T14:26:04;30.90;41.60
19110;DHT22;9687;50.836;12.060;2023-07-08T14:28:34;30.90;41.60
19110;DHT22;9687;50.836;12.060;2023-07-08T14:31:03;30.90;41.60
19110;DHT22;9687;50.836;12.060;2023-07-08T14:33:30;30.80;41.50
19110;DHT22;9687;50.836;12.060;2023-07-08T14:35:57;30.90;41.70
19110;DHT22;9687;50.836;12.060;2023-07-08T14:38:25;30.80;41.80
19110;DHT22;9687;50.836;12.060;2023-07-08T14:40:54;30.80;42.10
19110;DHT22;9687;50.836;12.060;2023-07-08T14:43:24;30.80;42.20
19110;DHT22;9687;50.836;12.060;2023-07-08T14:45:55;30.80;42.10
19110;DHT22;9687;50.836;12.060;2023-07-08T14:48:26;30.70;42.00
19110;DHT22;9687;50.836;12.060;2023-07-08T14:50:54;30.70;42.10
19110;DHT22;9687;50.836;12.060;2023-07-08T14:53:21;30.70;42.80
19110;DHT22;9687;50.836;12.060;2023-07-08T14:55:53;30.70;42.20
19110;DHT22;9687;50.836;12.060;2023-07-08T14:58:22;30.70;42.20
19110;DHT22;9687;50.836;12.060;2023-07-08T15:00:52;30.70;42.20
19110;DHT22;9687;50.836;12.060;2023-07-08T15:03:20;30.60;42.10
19110;DHT22;9687;50.836;12.060;2023-07-08T15:05:48;30.70;42.30
19110;DHT22;9687;50.836;12.060;2023-07-08T15:08:16;30.70;42.50
19110;DHT22;9687;50.836;12.060;2023-07-08T15:10:45;30.70;42.50
19110;DHT22;9687;50.836;12.060;2023-07-08T15:13:15;30.60;42.20
19110;DHT22;9687;50.836;12.060;2023-07-08T15:15:44;30.70;42.40
19110;DHT22;9687;50.836;12.060;2023-07-08T15:18:16;30.70;42.50
19110;DHT22;9687;50.836;12.060;2023-07-08T15:20:44;30.70;42.50
19110;DHT22;9687;50.836;12.060;2023-07-08T15:23:12;30.70;42.50
19110;DHT22;9687;50.836;12.060;2023-07-08T15:25:39;30.60;42.60
19110;DHT22;9687;50.836;12.060;2023-07-08T15:28:11;30.60;42.40
19110;DHT22;9687;50.836;12.060;2023-07-08T15:30:42;30.60;42.60
19110;DHT22;9687;50.836;12.060;2023-07-08T15:33:12;30.60;42.60
19110;DHT22;9687;50.836;12.060;2023-07-08T15:35:39;30.60;42.60
19110;DHT22;9687;50.836;12.060;2023-07-08T15:38:08;30.60;42.60
19110;DHT22;9687;50.836;12.060;2023-07-08T15:40:35;30.60;42.70
19110;DHT22;9687;50.836;12.060;2023-07-08T15:43:11;30.60;42.90
19110;DHT22;9687;50.836;12.060;2023-07-08T15:45:47;30.60;43.00
19110;DHT22;9687;50.836;12.060;2023-07-08T15:48:18;30.60;42.90
19110;DHT22;9687;50.836;12.060;2023-07-08T15:50:49;30.60;42.90
19110;DHT22;9687;50.836;12.060;2023-07-08T15:53:17;30.60;42.70
19110;DHT22;9687;50.836;12.060;2023-07-08T15:55:44;30.60;42.90
19110;DHT22;9687;50.836;12.060;2023-07-08T15:58:16;30.50;42.80
19110;DHT22;9687;50.836;12.060;2023-07-08T16:00:49;30.60;42.80
19110;DHT22;9687;50.836;12.060;2023-07-08T16:03:21;30.60;42.80
19110;DHT22;9687;50.836;12.060;2023-07-08T16:05:51;30.50;42.90
19110;DHT22;9687;50.836;12.060;2023-07-08T16:08:19;30.50;42.80
19110;DHT22;9687;50.836;12.060;2023-07-08T16:10:49;30.50;42.90
19110;DHT22;9687;50.836;12.060;2023-07-08T16:13:20;30.50;43.00
19110;DHT22;9687;50.836;12.060;2023-07-08T16:15:51;30.50;43.00
19110;DHT22;9687;50.836;12.060;2023-07-08T16:18:18;30.40;43.10
19110;DHT22;9687;50.836;12.060;2023-07-08T16:20:46;30.50;43.10
19110;DHT22;9687;50.836;12.060;2023-07-08T16:23:25;30.50;43.10
19110;DHT22;9687;50.836;12.060;2023-07-08T16:26:10;30.50;43.20
19110;DHT22;9687;50.836;12.060;2023-07-08T16:28:57;30.40;43.30
19110;DHT22;9687;50.836;12.060;2023-07-08T16:31:28;30.40;43.20
19110;DHT22;9687;50.836;12.060;2023-07-08T16:33:57;30.40;43.30
19110;DHT22;9687;50.836;12.060;2023-07-08T16:36:26;30.40;43.40
19110;DHT22;9687;50.836;12.060;2023-07-08T16:38:55;30.40;43.40